Williams, AZ

8:58 PM MST on February 05, 2016 (GMT -0700)
Williams | | Change Station
CLOSE
Current Station
Airport
Location: Williams,
Elevation: 6680 ft
Nearby Weather Stations

Elev 6680 ft 35.31 °N, 112.19 °W | Updated 3 minutes ago

Clear
Clear
25 °F
Feels Like 25 °F
N
0
Wind Variable Wind from North

Today
High -- | Low -- °F
--% Chance of Precip.
Yesterday
High -- | Low -- °F
Precip. -- in
Pressure 30.49 in
Visibility 10.0 miles
Clouds Clear
Dew Point 7 °F
Humidity 46%
Rainfall 0.00 in
Snow Depth Not available.
7:25 AM 6:00 PM
Waning Crescent, 8% visible
METAR KCMR 060355Z AUTO 00000KT 10SM CLR M04/M14 A3049 RMK AO2
Pressure 30.49 in
Visibility 10.0 miles
Clouds Clear
Dew Point 7 °F
Humidity 46%
Rainfall 0.00 in
Snow Depth Not available.
7:25 AM 6:00 PM
Waning Crescent, 8% visible
METAR KCMR 060355Z AUTO 00000KT 10SM CLR M04/M14 A3049 RMK AO2

10-Day Weather Forecast

Almanac

Astronomy

Feb. 05, 2016 Rise Set
Actual Time
Civil Twilight
Nautical Twilight
Astronomical Twilight
Moon
Length of Visible Light
Length of Day
Tomorrow will be .
, % of the Moon is Illuminated

Today's Extremes

State Highs State Lows

Community

WunderPhotos

Upload Photos

1,890,922 photos uploaded!

WunderBlog® & News

Nearby

Air Quality

  Air Quality AQ Index Pollutant
Not available.

Snow Depth

Station Depth Elevation

Earthquake Activity

City Distance Mag. Time & Date
Minimum magnitude displayed is 2.5.

Coastal Water Temperatures

Place Temperature

Stations

Nearby Weather Stations

Station Location Temp. Windchill Dew Point Humidity Wind Precip. Elev Updated Type
                   

Watches & Warnings

There are currently no watches in effect.